createdAt,value
2023-08-15T00:02:08.440Z,61.64
2023-08-15T00:07:11.449Z,61.02
2023-08-15T00:12:14.218Z,60.84
2023-08-15T00:17:17.034Z,58.91
2023-08-15T00:22:19.826Z,58.08
2023-08-15T00:27:22.804Z,61.21
2023-08-15T00:32:25.839Z,66.75
2023-08-15T00:37:29.032Z,64.90
2023-08-15T00:42:31.989Z,62.94
2023-08-15T00:47:35.080Z,62.39
2023-08-15T00:52:39.041Z,62.12
2023-08-15T00:57:41.778Z,60.96
2023-08-15T01:02:44.771Z,60.26
2023-08-15T01:07:48.050Z,56.91
2023-08-15T01:13:12.426Z,58.91
2023-08-15T01:18:24.561Z,65.35
2023-08-15T01:23:47.173Z,62.89
2023-08-15T01:28:50.096Z,62.81
2023-08-15T01:34:09.505Z,60.51
2023-08-15T01:39:14.600Z,59.56
2023-08-15T01:44:17.903Z,61.98
2023-08-15T01:49:20.661Z,66.61
2023-08-15T01:54:23.870Z,64.99
2023-08-15T01:59:26.608Z,63.24
2023-08-15T02:04:29.327Z,62.00
2023-08-15T02:09:32.720Z,59.12
2023-08-15T02:14:35.407Z,62.61
2023-08-15T02:19:38.183Z,63.76
2023-08-15T02:24:41.134Z,61.93
2023-08-15T02:29:43.931Z,62.11
2023-08-15T02:34:46.718Z,61.74
2023-08-15T02:39:49.821Z,62.14
2023-08-15T02:44:52.535Z,61.10
2023-08-15T02:49:55.241Z,60.99
2023-08-15T02:54:57.932Z,60.82
2023-08-15T03:00:00.926Z,58.78
2023-08-15T03:05:04.649Z,63.07
2023-08-15T03:10:07.961Z,64.07
2023-08-15T03:15:11.380Z,62.35
2023-08-15T03:20:14.881Z,62.17
2023-08-15T03:25:18.472Z,61.24
2023-08-15T03:30:21.222Z,61.14
2023-08-15T03:35:24.060Z,60.81
2023-08-15T03:40:26.792Z,60.68
2023-08-15T03:45:31.113Z,60.41
2023-08-15T03:50:35.494Z,60.21
2023-08-15T03:55:38.224Z,60.52
2023-08-15T04:00:40.913Z,61.07
2023-08-15T04:05:47.541Z,61.29
2023-08-15T04:10:50.485Z,61.40
2023-08-15T04:15:54.174Z,61.21
2023-08-15T04:20:57.110Z,60.80
2023-08-15T04:25:59.914Z,60.53
2023-08-15T04:31:02.726Z,61.35
2023-08-15T04:36:05.727Z,61.75
2023-08-15T04:41:08.524Z,61.57
2023-08-15T04:46:11.490Z,61.30
2023-08-15T04:51:14.315Z,60.77
2023-08-15T04:56:17.178Z,59.96
2023-08-15T05:01:20.420Z,59.19
2023-08-15T05:06:23.292Z,61.04
2023-08-15T05:11:26.039Z,63.13
2023-08-15T05:16:28.763Z,60.03
2023-08-15T05:21:31.824Z,59.22
2023-08-15T05:26:34.731Z,62.17
2023-08-15T05:31:37.550Z,60.35
2023-08-15T05:36:40.404Z,59.51
2023-08-15T05:41:43.083Z,61.34
2023-08-15T05:46:45.828Z,62.17
2023-08-15T05:51:48.607Z,61.85
2023-08-15T05:56:51.319Z,58.61
2023-08-15T06:01:53.989Z,59.85
2023-08-15T06:06:56.685Z,61.02
2023-08-15T06:11:59.779Z,60.51
2023-08-15T06:17:02.553Z,56.37
2023-08-15T06:22:07.669Z,56.33
2023-08-15T06:27:10.783Z,57.69
2023-08-15T06:32:27.153Z,57.34
2023-08-15T06:37:30.011Z,54.60
2023-08-15T06:42:33.003Z,53.33
2023-08-15T06:47:35.926Z,49.81
2023-08-15T06:52:39.067Z,47.41
2023-08-15T06:57:41.781Z,44.68
2023-08-15T07:02:44.574Z,43.57
2023-08-15T07:07:47.426Z,41.66
2023-08-15T07:12:50.171Z,39.55
2023-08-15T07:17:52.944Z,40.17
2023-08-15T07:22:56.557Z,38.79
2023-08-15T07:27:59.345Z,36.32
2023-08-15T07:33:03.056Z,35.47
2023-08-15T07:38:05.991Z,33.97
2023-08-15T07:43:08.690Z,33.75
2023-08-15T07:48:11.478Z,32.98
2023-08-15T07:53:14.486Z,30.38
2023-08-15T07:58:17.303Z,28.30
2023-08-15T08:03:20.311Z,28.12
2023-08-15T08:08:23.677Z,27.87
2023-08-15T08:13:29.861Z,27.96
2023-08-15T08:18:35.077Z,28.72
2023-08-15T08:23:38.554Z,27.83
2023-08-15T08:28:44.262Z,27.60
2023-08-15T08:33:47.341Z,27.33
2023-08-15T08:38:52.424Z,27.46
2023-08-15T08:43:55.615Z,27.01
2023-08-15T08:49:02.150Z,26.36
2023-08-15T08:54:07.986Z,24.79
2023-08-15T08:59:13.933Z,24.41
2023-08-15T09:04:21.219Z,23.92
2023-08-15T09:09:24.498Z,24.02
2023-08-15T09:14:27.229Z,23.30
2023-08-15T09:19:29.931Z,22.73
2023-08-15T09:24:32.588Z,23.60
2023-08-15T09:29:36.413Z,23.12
2023-08-15T09:34:39.196Z,22.37
2023-08-15T09:39:42.048Z,21.58
2023-08-15T09:44:44.842Z,21.03
2023-08-15T09:49:52.547Z,19.68
2023-08-15T09:54:57.002Z,20.06
2023-08-15T09:59:59.793Z,19.26
2023-08-15T10:05:07.705Z,19.47
2023-08-15T10:10:10.714Z,19.42
2023-08-15T10:15:14.586Z,18.27
2023-08-15T10:20:22.343Z,18.64
2023-08-15T10:25:25.454Z,17.62
2023-08-15T10:30:34.943Z,17.65
2023-08-15T10:35:38.627Z,18.09
2023-08-15T10:40:44.399Z,17.95
2023-08-15T10:45:52.075Z,18.49
2023-08-15T10:50:55.006Z,17.79
2023-08-15T10:56:03.785Z,17.93
2023-08-15T11:01:09.565Z,18.11
2023-08-15T11:06:14.444Z,18.36
2023-08-15T11:11:18.318Z,17.61
2023-08-15T11:16:24.501Z,18.18
2023-08-15T11:21:30.279Z,17.83
2023-08-15T11:26:33.954Z,17.13
2023-08-15T11:31:38.613Z,15.79
2023-08-15T11:36:42.379Z,16.19
2023-08-15T11:41:52.036Z,16.38
2023-08-15T11:47:03.446Z,16.79
2023-08-15T11:52:08.095Z,16.86
2023-08-15T11:57:11.921Z,16.26
2023-08-15T12:02:15.330Z,16.45
2023-08-15T12:07:21.056Z,16.31
2023-08-15T12:12:26.124Z,16.18
2023-08-15T12:17:31.603Z,16.13
2023-08-15T12:22:36.938Z,16.29
2023-08-15T12:27:42.057Z,17.47
2023-08-15T12:32:47.706Z,18.53
2023-08-15T12:37:52.369Z,19.24
2023-08-15T12:42:55.574Z,19.32
2023-08-15T12:48:00.801Z,18.71
2023-08-15T12:53:05.047Z,18.82
2023-08-15T12:58:09.053Z,18.54
2023-08-15T13:03:13.816Z,18.56
2023-08-15T13:08:20.574Z,18.20
2023-08-15T13:13:24.918Z,18.10
2023-08-15T13:18:28.755Z,18.22
2023-08-15T13:23:35.814Z,18.39
2023-08-15T13:28:38.896Z,18.51
2023-08-15T13:33:44.250Z,18.27
2023-08-15T13:38:48.121Z,17.59
2023-08-15T13:43:53.568Z,17.66
2023-08-15T13:48:57.207Z,17.59
2023-08-15T13:54:01.946Z,17.12
2023-08-15T13:59:09.171Z,16.96
2023-08-15T14:04:13.072Z,17.28
2023-08-15T14:09:16.371Z,16.86
2023-08-15T14:14:19.640Z,16.59
2023-08-15T14:19:22.713Z,16.57
2023-08-15T14:24:26.177Z,16.65
2023-08-15T14:29:29.269Z,16.19
2023-08-15T14:34:32.841Z,16.19
2023-08-15T14:39:37.553Z,15.75
2023-08-15T14:44:48.405Z,16.44
2023-08-15T14:49:52.017Z,16.96
2023-08-15T14:54:56.509Z,17.20
2023-08-15T15:00:00.592Z,17.78
2023-08-15T15:05:06.421Z,17.88
2023-08-15T15:10:10.756Z,17.53
2023-08-15T15:15:14.697Z,17.22
2023-08-15T15:20:19.448Z,17.40
2023-08-15T15:25:22.642Z,17.43
2023-08-15T15:30:26.953Z,17.82
2023-08-15T15:35:30.130Z,19.59
2023-08-15T15:40:34.385Z,22.10
2023-08-15T15:45:37.919Z,24.14
2023-08-15T15:50:41.205Z,25.59
2023-08-15T15:55:44.797Z,27.15
2023-08-15T16:00:48.138Z,27.69
2023-08-15T16:05:51.491Z,28.38
2023-08-15T16:10:56.496Z,28.58
2023-08-15T16:15:59.342Z,29.04
2023-08-15T16:21:02.337Z,29.14
2023-08-15T16:26:05.103Z,29.37
2023-08-15T16:31:08.667Z,29.78
2023-08-15T16:36:11.503Z,30.03
2023-08-15T16:41:14.461Z,30.30
2023-08-15T16:46:17.296Z,30.62
2023-08-15T16:51:20.173Z,30.81
2023-08-15T16:56:23.583Z,31.09
2023-08-15T17:01:27.545Z,31.14
2023-08-15T17:06:30.536Z,32.71
2023-08-15T17:11:33.709Z,33.67
2023-08-15T17:16:36.710Z,33.71
2023-08-15T17:21:39.954Z,34.38
2023-08-15T17:26:42.768Z,34.44
2023-08-15T17:31:46.643Z,34.97
2023-08-15T17:36:49.454Z,35.63
2023-08-15T17:41:52.267Z,35.37
2023-08-15T17:46:55.134Z,37.03
2023-08-15T17:51:58.025Z,37.08
2023-08-15T17:57:01.072Z,37.46
2023-08-15T18:02:04.706Z,37.96
2023-08-15T18:07:07.422Z,38.53
2023-08-15T18:12:10.185Z,38.68
2023-08-15T18:17:13.011Z,39.11
2023-08-15T18:22:16.683Z,40.10
2023-08-15T18:27:21.022Z,41.18
2023-08-15T18:32:24.337Z,42.06
2023-08-15T18:37:27.606Z,42.38
2023-08-15T18:42:30.414Z,43.22
2023-08-15T18:47:33.444Z,43.62
2023-08-15T18:52:37.769Z,43.76
2023-08-15T18:57:41.241Z,44.38
2023-08-15T19:02:44.365Z,44.57
2023-08-15T19:07:48.119Z,44.75
2023-08-15T19:12:51.500Z,45.33
2023-08-15T19:17:54.824Z,46.09
2023-08-15T19:22:58.268Z,45.75
2023-08-15T19:28:01.366Z,46.16
2023-08-15T19:33:04.406Z,45.92
2023-08-15T19:38:07.380Z,46.01
2023-08-15T19:43:10.707Z,46.61
2023-08-15T19:48:13.990Z,46.29
2023-08-15T19:53:17.332Z,46.48
2023-08-15T19:58:20.264Z,46.70
2023-08-15T20:03:23.420Z,46.74
2023-08-15T20:08:26.352Z,46.64
2023-08-15T20:13:29.842Z,46.85
2023-08-15T20:18:32.886Z,46.95
2023-08-15T20:23:36.192Z,46.64
2023-08-15T20:28:39.319Z,46.79
2023-08-15T20:33:50.474Z,47.15
2023-08-15T20:38:54.587Z,46.83
2023-08-15T20:43:57.412Z,47.19
2023-08-15T20:49:00.457Z,47.05
2023-08-15T20:54:03.829Z,47.36
2023-08-15T20:59:07.312Z,47.40
2023-08-15T21:04:10.980Z,48.24
2023-08-15T21:09:14.370Z,48.36
2023-08-15T21:14:17.604Z,48.65
2023-08-15T21:19:21.333Z,49.26
2023-08-15T21:24:24.759Z,50.28
2023-08-15T21:29:27.656Z,50.22
2023-08-15T21:34:33.777Z,50.43
2023-08-15T21:39:37.220Z,50.47
2023-08-15T21:44:49.053Z,50.89
2023-08-15T21:49:53.665Z,51.37
2023-08-15T21:54:58.922Z,51.22
2023-08-15T22:00:04.507Z,51.00
2023-08-15T22:05:08.588Z,50.91
2023-08-15T22:10:11.540Z,50.87
2023-08-15T22:15:14.652Z,50.54
2023-08-15T22:20:17.491Z,50.38
2023-08-15T22:25:21.596Z,50.69
2023-08-15T22:30:24.554Z,50.75
2023-08-15T22:35:41.395Z,51.22
2023-08-15T22:40:44.210Z,51.98
2023-08-15T22:45:47.202Z,51.88
2023-08-15T22:50:50.030Z,51.71
2023-08-15T22:55:59.432Z,51.69
2023-08-15T23:01:02.222Z,51.26
2023-08-15T23:06:07.525Z,50.89
2023-08-15T23:11:10.288Z,50.67
2023-08-15T23:16:13.139Z,50.44
2023-08-15T23:21:16.428Z,50.54
2023-08-15T23:26:19.224Z,51.24
2023-08-15T23:31:32.846Z,51.79
2023-08-15T23:36:35.733Z,52.50
2023-08-15T23:41:38.450Z,53.86
2023-08-15T23:46:41.192Z,53.82
2023-08-15T23:51:44.505Z,54.20
2023-08-15T23:56:47.657Z,54.24
